PAVD

Details ICAO PAVD (VDZ)
Name Valdez Pioneer Fld
Region USA (Alaska)
Timezone America/Anchorage (UTC-8.0)
Plans Departing 48
Arriving 63
Stats Elevation 118 ft / 36 m (AMSL)
Location 61.133950° -146.248340°
Runways 1
Magnetic Variation 17.261° E
Sunrise 2018-05-26 12:34:12 UTC / 2018-05-26 04:34:12 Local
Sunset 2018-05-27 06:52:51 UTC / 2018-05-26 22:52:51 Local
Advertisement - Login to hide

Runways

ID Width Length Bearing (true) Bearing (mag) Surface Threshold Offset Overrun Length
06 150 ft / 46 m 6,486 ft / 1,977 m 81.25° 63.99° Asphalt 0 ft / 0 m 0 ft / 0 m
24 150 ft / 46 m 6,486 ft / 1,977 m 261.28° 244.02° Asphalt 0 ft / 0 m 0 ft / 0 m

Approach Navaids

Runway Type Ident Frequency Range Bearing (true) Bearing (mag) Slope Elevation
06 Localiser IVDZ 109.50 MHz 18 nm / 33 km 83.69° 66.42° - 118 ft / 36 m (AMSL)
06 DME IVDZ 109.50 MHz 18 nm / 33 km - - - 120 ft / 37 m (AMSL)

Map

Weather


0- 5 10 15 20 25 30 35+ Temperature / ° C

Clouds and Precipitation
Forecast for 2018-05-26 18:00 UTC. Updated an hour ago

Ground ~20,000 ft ~40,000 ft Winds

METAR

PAVD 261756Z 00000KT 10SM SCT016 SCT031 OVC070 07/04 A2967

TAF

PAVD 261743Z 2618/2718 VRB05KT P6SM SCT040 BKN070 FM262300 27015G25KT P6SM BKN060 FM270500 26010KT P6SM -SHRA OVC045 FM271100 VRB05KT P6SM -RA BKN025 AMD LTD TO CLD VIS AND WIND

Frequencies

Recorded 118.80 MHz AWOS 3
Unicom 122.90 MHz CTAF
Warning: Do not use this data for real-world aviation or navigation. No guarantee of current accuracy is given.